Mesquite, Nevada
Current Conditions -  °F | °C
As of 12:35 PM on Saturday 25 Oct 2014 (Local Time) from KSGU Reporting Station
Scattered Clouds Scattered Clouds  
Wind Chill: 77°   Ceiling: Unl
Heat Index: 77°   Visibility: 10mi
Dew Point: 37°   Wind: 0mph
Humidity: 24%   Direction: NA
Pressure: 30.09"   Gusts: NA
Location:  36.8°N, 114.11°W
Report Text: KSGU 251935Z AUTO 00000KT 10SM SCT095 25/03 A3009 RMK AO1
Loading
Personal Weather Stations






























Interactive Weather Map
Tropical Storm Tracking
New forecast layout! Learn more

10-Day Weather Forecast

Advertisements
Track Severe Weather on mobile